Time;durP1;ratioP1;P1;durP2;ratioP2;P2;SDS_P1;SDS_P2;PMS_P1;PMS_P2;Temp;Humidity;BMP_temperature;BMP_pressure;BME280_temperature;BME280_humidity;BME280_pressure;Samples;Min_cycle;Max_cycle;Signal;HPM_P1;HPM_P2
2022/05/28 00:01:40;;;;;;;4.27;1.30;;;;;;;11.01;68.96;100851.22;5051598;28;20215;-74
2022/05/28 00:04:07;;;;;;;3.47;1.33;;;;;;;10.96;69.08;100832.16;5050723;28;20226;-73
2022/05/28 00:06:36;;;;;;;4.97;1.20;;;;;;;10.91;69.56;100834.81;5051124;28;20607;-74
2022/05/28 00:09:04;;;;;;;11.67;2.83;;;;;;;10.94;69.53;100823.44;5051251;28;20208;-74
2022/05/28 00:11:33;;;;;;;5.57;1.53;;;;;;;10.96;69.46;100808.63;5050850;28;20744;-73
2022/05/28 00:14:01;;;;;;;5.67;1.37;;;;;;;11.00;69.11;100817.28;5050955;28;20235;-73
2022/05/28 00:16:28;;;;;;;3.70;1.10;;;;;;;11.04;69.47;100811.09;5051146;28;20207;-74
2022/05/28 00:18:54;;;;;;;2.57;0.90;;;;;;;10.93;69.79;100822.59;5050678;28;20211;-73
2022/05/28 00:21:22;;;;;;;5.83;1.37;;;;;;;10.88;70.01;100798.31;5051225;28;20273;-73
2022/05/28 00:23:50;;;;;;;5.13;1.13;;;;;;;10.97;69.80;100799.91;5050956;28;20221;-74
2022/05/28 00:26:17;;;;;;;2.23;1.10;;;;;;;10.84;69.87;100816.63;5050857;28;20231;-73
2022/05/28 00:28:44;;;;;;;3.80;2.23;;;;;;;10.86;70.14;100800.06;5054205;28;20617;-73
2022/05/28 00:31:10;;;;;;;5.70;1.40;;;;;;;10.81;70.67;100773.16;5054714;28;20260;-73
2022/05/28 00:33:37;;;;;;;3.73;1.23;;;;;;;10.84;70.51;100770.50;5054551;28;20286;-74
2022/05/28 00:36:08;;;;;;;8.77;1.53;;;;;;;10.99;70.00;100792.03;5054786;28;20206;-73
2022/05/28 00:38:35;;;;;;;6.23;1.33;;;;;;;10.92;70.07;100786.91;5054824;28;20189;-73
2022/05/28 00:41:04;;;;;;;2.97;1.17;;;;;;;10.93;70.69;100778.19;5054362;28;20739;-73
2022/05/28 00:43:31;;;;;;;5.20;1.30;;;;;;;10.91;70.52;100766.03;5054505;28;20242;-73
2022/05/28 00:46:01;;;;;;;6.47;1.43;;;;;;;10.96;70.23;100755.50;5054023;28;20236;-73
2022/05/28 00:48:32;;;;;;;3.33;1.20;;;;;;;10.86;70.47;100760.00;5054193;28;20208;-73
2022/05/28 00:51:05;;;;;;;4.47;1.10;;;;;;;10.99;70.72;100758.94;5054379;28;20195;-73
2022/05/28 00:53:33;;;;;;;4.60;1.07;;;;;;;10.99;70.34;100772.00;5054252;28;20594;-73
2022/05/28 00:55:59;;;;;;;5.90;1.73;;;;;;;10.87;70.87;100765.22;5054234;28;20635;-73
2022/05/28 00:58:27;;;;;;;4.03;1.40;;;;;;;10.89;70.82;100754.75;5053825;28;20245;-73
2022/05/28 01:00:54;;;;;;;4.63;1.50;;;;;;;10.95;70.89;100749.44;5054146;28;20203;-73
2022/05/28 01:03:27;;;;;;;7.63;1.53;;;;;;;10.86;71.41;100752.19;5053978;28;20231;-73
2022/05/28 01:06:04;;;;;;;7.33;1.30;;;;;;;10.90;71.29;100733.84;5054210;28;20227;-73
2022/05/28 01:08:38;;;;;;;3.53;1.30;;;;;;;10.83;71.07;100747.88;5054492;28;20207;-72
2022/05/28 01:11:15;;;;;;;3.93;1.07;;;;;;;10.93;71.74;100730.31;5053465;28;20613;-73
2022/05/28 01:13:50;;;;;;;3.30;1.27;;;;;;;10.65;76.49;100635.91;5054079;28;20233;-74
2022/05/28 01:16:23;;;;;;;8.47;2.07;;;;;;;10.56;77.47;100555.13;5054319;28;20249;-74
2022/05/28 01:18:56;;;;;;;5.43;1.90;;;;;;;10.38;77.25;100509.31;5053077;28;20216;-73
2022/05/28 01:21:35;;;;;;;6.30;1.10;;;;;;;10.40;76.41;100544.06;5054028;28;20208;-74
2022/05/28 01:24:10;;;;;;;5.23;1.90;;;;;;;10.32;75.98;100550.25;5053834;28;20226;-73
2022/05/28 01:26:51;;;;;;;5.13;1.87;;;;;;;10.33;77.49;100545.94;5053719;28;20226;-73
2022/05/28 01:29:19;;;;;;;2.90;1.53;;;;;;;10.32;77.80;100521.56;5053623;28;20249;-74
2022/05/28 01:31:47;;;;;;;5.73;1.63;;;;;;;10.38;76.54;100543.25;5054134;28;20215;-73
2022/05/28 01:34:16;;;;;;;4.07;1.40;;;;;;;10.43;76.36;100565.75;5053386;28;20239;-73
2022/05/28 01:36:44;;;;;;;4.70;2.07;;;;;;;10.51;76.46;100563.88;5053790;28;20215;-73
2022/05/28 01:39:11;;;;;;;4.40;1.70;;;;;;;10.47;76.09;100563.97;5052051;28;20294;-74
2022/05/28 01:41:40;;;;;;;4.67;1.80;;;;;;;10.43;76.59;100565.75;5053432;28;20218;-75
2022/05/28 01:44:11;;;;;;;4.50;1.07;;;;;;;10.52;76.24;100580.41;5053635;28;20227;-74
2022/05/28 01:46:39;;;;;;;4.93;1.70;;;;;;;10.51;76.68;100583.91;5053036;28;20217;-73
2022/05/28 01:49:10;;;;;;;4.17;1.60;;;;;;;10.40;77.21;100565.81;5052894;28;20253;-73
2022/05/28 01:51:42;;;;;;;3.10;1.00;;;;;;;10.25;74.62;100579.09;5053506;28;20207;-73
2022/05/28 01:54:11;;;;;;;4.87;1.27;;;;;;;10.05;74.62;100619.34;5053374;28;20296;-74
2022/05/28 01:56:42;;;;;;;2.47;1.00;;;;;;;9.76;77.70;100593.66;5052923;28;20727;-74
2022/05/28 01:59:10;;;;;;;2.27;0.87;;;;;;;9.60;79.79;100534.81;5053170;28;20196;-73
2022/05/28 02:01:37;;;;;;;3.40;1.37;;;;;;;9.41;82.24;100467.28;5053466;28;20248;-73
2022/05/28 02:04:04;;;;;;;3.83;1.10;;;;;;;9.32;84.32;100405.78;5052845;28;20234;-75
2022/05/28 02:06:31;;;;;;;3.73;1.30;;;;;;;9.02;87.54;100326.34;5053079;28;20228;-74
2022/05/28 02:08:58;;;;;;;2.30;0.90;;;;;;;8.83;88.49;100273.69;5053009;28;20216;-74
2022/05/28 02:11:27;;;;;;;1.83;0.67;;;;;;;8.79;88.76;100261.59;5052509;28;20201;-74
2022/05/28 02:14:08;;;;;;;1.43;0.60;;;;;;;8.66;89.34;100273.94;5053011;28;20312;-74
2022/05/28 02:16:44;;;;;;;1.33;0.70;;;;;;;8.64;89.81;100260.09;5052813;28;20278;-74
2022/05/28 02:19:18;;;;;;;1.37;1.27;;;;;;;8.65;89.75;100260.94;5047278;28;20262;-74
2022/05/28 02:21:51;;;;;;;3.40;0.90;;;;;;;8.65;89.65;100273.94;5052668;28;20250;-74
2022/05/28 02:24:23;;;;;;;3.27;1.03;;;;;;;8.74;90.51;100277.28;5052669;28;20289;-74
2022/05/28 02:26:55;;;;;;;1.97;0.83;;;;;;;8.81;90.30;100300.63;5052347;28;20729;-75
2022/05/28 02:29:22;;;;;;;2.50;0.80;;;;;;;8.69;91.29;100299.91;5052249;28;20433;-74
2022/05/28 02:31:50;;;;;;;2.37;0.63;;;;;;;8.67;92.16;100290.41;5052644;28;20614;-74
2022/05/28 02:34:18;;;;;;;1.67;0.93;;;;;;;8.55;92.24;100283.63;5052365;28;20649;-74
2022/05/28 02:36:45;;;;;;;3.47;0.90;;;;;;;8.61;92.84;100282.69;5052282;28;20674;-73
2022/05/28 02:39:11;;;;;;;2.17;1.00;;;;;;;8.55;92.75;100284.47;5052144;28;20262;-74
2022/05/28 02:41:38;;;;;;;2.97;1.03;;;;;;;8.57;92.59;100286.22;5052042;28;20283;-74
2022/05/28 02:44:05;;;;;;;2.33;1.00;;;;;;;8.59;92.62;100294.84;5052501;28;20231;-73
2022/05/28 02:46:32;;;;;;;2.63;1.23;;;;;;;8.70;92.73;100300.75;5052278;28;20229;-74
2022/05/28 02:49:00;;;;;;;3.77;1.27;;;;;;;8.78;91.93;100327.56;5051420;28;20217;-73
2022/05/28 02:51:26;;;;;;;3.37;1.30;;;;;;;8.74;91.46;100350.16;5051919;28;20383;-74
2022/05/28 02:53:54;;;;;;;3.37;1.57;;;;;;;8.74;91.37;100346.66;5052249;28;20263;-74
2022/05/28 02:56:23;;;;;;;4.63;1.00;;;;;;;8.80;91.58;100346.63;5051882;28;20202;-74
2022/05/28 02:58:49;;;;;;;3.93;1.60;;;;;;;8.94;90.13;100377.66;5051487;28;20205;-76
2022/05/28 03:01:18;;;;;;;2.97;1.50;;;;;;;8.89;89.64;100400.28;5052210;28;20206;-74
2022/05/28 03:03:45;;;;;;;4.13;1.53;;;;;;;8.87;89.14;100417.66;5051851;28;20280;-74
2022/05/28 03:06:13;;;;;;;4.93;2.17;;;;;;;8.91;89.09;100420.19;5051694;28;20378;-74
2022/05/28 03:08:40;;;;;;;3.80;1.63;;;;;;;8.94;89.46;100417.56;5051528;28;20691;-74
2022/05/28 03:11:06;;;;;;;5.33;1.40;;;;;;;8.84;89.82;100415.97;5050968;28;20210;-73
2022/05/28 03:13:33;;;;;;;5.07;1.90;;;;;;;8.91;90.16;100411.53;5052004;28;20691;-75
2022/05/28 03:15:59;;;;;;;4.07;1.50;;;;;;;8.81;90.37;100421.19;5051898;28;20264;-74
2022/05/28 03:18:26;;;;;;;7.60;2.03;;;;;;;8.91;88.91;100448.84;5051551;28;20239;-74
2022/05/28 03:20:53;;;;;;;4.70;2.20;;;;;;;8.94;88.91;100458.38;5051353;28;20205;-73
2022/05/28 03:23:20;;;;;;;3.57;1.63;;;;;;;8.98;87.92;100480.00;5051872;28;20225;-74
2022/05/28 03:25:47;;;;;;;5.60;2.13;;;;;;;8.97;87.90;100489.56;5051499;28;20699;-74
2022/05/28 03:28:13;;;;;;;6.27;1.57;;;;;;;9.01;88.13;100498.19;5051698;28;20681;-74
2022/05/28 03:30:40;;;;;;;4.27;1.73;;;;;;;9.05;87.43;100510.31;5051615;28;20205;-74
2022/05/28 03:33:06;;;;;;;6.97;2.43;;;;;;;9.03;87.29;100525.94;5051270;28;20897;-73
2022/05/28 03:35:33;;;;;;;4.43;2.20;;;;;;;8.99;86.75;100534.66;5051259;28;20210;-73
2022/05/28 03:38:01;;;;;;;4.57;1.50;;;;;;;9.05;86.88;100549.34;5051436;28;20859;-73
2022/05/28 03:40:29;;;;;;;7.13;1.60;;;;;;;8.99;87.29;100552.88;5051356;28;20201;-73
2022/05/28 03:42:55;;;;;;;3.83;1.63;;;;;;;8.95;86.97;100544.25;5051390;28;20227;-74
2022/05/28 03:45:22;;;;;;;8.20;2.47;;;;;;;8.99;87.10;100533.81;5051197;28;20737;-74
2022/05/28 03:47:48;;;;;;;10.37;1.97;;;;;;;8.83;87.35;100531.34;5051519;28;20268;-74
2022/05/28 03:50:15;;;;;;;4.97;1.90;;;;;;;8.89;86.35;100552.13;5050731;28;20215;-74
2022/05/28 03:52:41;;;;;;;8.70;1.40;;;;;;;8.95;85.55;100570.28;5051449;28;20701;-73
2022/05/28 03:55:09;;;;;;;4.43;1.30;;;;;;;8.94;85.76;100580.72;5051206;28;20279;-75
2022/05/28 03:57:36;;;;;;;5.27;1.60;;;;;;;8.90;86.08;100579.00;5051400;28;20703;-74
2022/05/28 04:00:05;;;;;;;4.63;1.60;;;;;;;8.86;86.52;100569.50;5051026;28;20214;-74
2022/05/28 04:02:32;;;;;;;6.90;1.83;;;;;;;8.93;86.01;100563.38;5052940;28;20205;-75
2022/05/28 04:04:58;;;;;;;5.23;1.30;;;;;;;8.94;85.83;100583.34;5054976;28;20283;-74
2022/05/28 04:07:25;;;;;;;5.33;1.70;;;;;;;8.89;86.79;100562.53;5054882;28;20252;-75
2022/05/28 04:09:51;;;;;;;4.00;1.67;;;;;;;8.88;86.76;100557.34;5055015;28;20217;-74
2022/05/28 04:12:18;;;;;;;5.30;1.80;;;;;;;8.94;86.84;100545.13;5055030;28;20625;-76
2022/05/28 04:14:46;;;;;;;2.20;1.20;;;;;;;8.92;86.10;100567.72;5054904;28;20225;-75
2022/05/28 04:17:12;;;;;;;6.63;1.37;;;;;;;8.98;86.18;100571.13;5054797;28;20683;-74
2022/05/28 04:19:39;;;;;;;7.93;1.60;;;;;;;9.04;85.25;100595.38;5054157;28;20251;-73
2022/05/28 04:22:06;;;;;;;3.30;1.23;;;;;;;9.18;84.47;100617.78;5054892;28;20581;-74
2022/05/28 04:24:33;;;;;;;5.73;1.40;;;;;;;9.18;83.85;100647.31;5054842;28;20231;-74
2022/05/28 04:26:59;;;;;;;4.87;1.30;;;;;;;9.29;82.19;100688.88;5054642;28;20232;-74
2022/05/28 04:29:26;;;;;;;5.67;1.57;;;;;;;9.29;81.63;100715.78;5054794;28;20209;-75
2022/05/28 04:31:54;;;;;;;2.40;1.10;;;;;;;9.30;81.37;100719.28;5055026;28;20236;-74
2022/05/28 04:34:20;;;;;;;4.43;1.00;;;;;;;9.36;81.42;100747.88;5054412;28;20225;-74
2022/05/28 04:36:46;;;;;;;2.93;1.27;;;;;;;9.32;81.17;100740.97;5054547;28;20550;-73
2022/05/28 04:39:13;;;;;;;5.70;1.40;;;;;;;9.36;81.46;100749.63;5054265;28;20215;-74
2022/05/28 04:41:39;;;;;;;2.10;1.40;;;;;;;9.40;80.73;100752.16;5054492;28;20222;-74
2022/05/28 04:44:06;;;;;;;5.47;1.50;;;;;;;9.38;81.54;100755.69;5054730;28;20256;-75
2022/05/28 04:46:33;;;;;;;3.90;1.80;;;;;;;9.50;80.47;100773.81;5054262;28;20234;-74
2022/05/28 04:49:01;;;;;;;3.20;1.27;;;;;;;9.52;80.11;100775.50;5053034;28;20267;-75
2022/05/28 04:51:27;;;;;;;5.47;1.37;;;;;;;9.76;80.01;100790.94;5054229;28;20835;-74
2022/05/28 04:53:53;;;;;;;4.83;1.10;;;;;;;9.74;80.31;100780.50;5054527;28;20225;-75
2022/05/28 04:56:20;;;;;;;6.03;1.37;;;;;;;9.72;80.04;100792.69;5054501;28;20201;-74
2022/05/28 04:58:46;;;;;;;5.93;1.77;;;;;;;9.63;80.22;100785.84;5054049;28;20255;-73
2022/05/28 05:01:14;;;;;;;3.63;1.80;;;;;;;9.61;81.01;100766.72;5054100;28;20610;-75
2022/05/28 05:03:41;;;;;;;4.80;1.40;;;;;;;9.53;80.37;100766.81;5054117;28;20227;-74
2022/05/28 05:06:09;;;;;;;5.03;1.77;;;;;;;9.58;80.73;100765.91;5054037;28;20280;-74
2022/05/28 05:08:35;;;;;;;5.03;1.50;;;;;;;9.53;80.40;100766.81;5054311;28;20257;-75
2022/05/28 05:11:02;;;;;;;3.77;1.20;;;;;;;9.59;80.73;100762.41;5053411;28;20207;-74
2022/05/28 05:13:28;;;;;;;4.13;1.60;;;;;;;9.66;80.72;100749.31;5053990;28;20636;-74
2022/05/28 05:15:55;;;;;;;7.83;1.60;;;;;;;9.77;77.79;100816.09;5053977;28;20268;-75
2022/05/28 05:18:21;;;;;;;6.37;1.40;;;;;;;9.82;77.33;100835.19;5053835;28;20216;-74
2022/05/28 05:20:48;;;;;;;5.50;1.43;;;;;;;9.87;77.73;100851.63;5052932;28;20201;-75
2022/05/28 05:23:17;;;;;;;6.23;1.70;;;;;;;9.94;77.31;100856.78;5053958;28;20226;-74
2022/05/28 05:25:44;;;;;;;3.10;1.60;;;;;;;10.04;76.51;100881.03;5053962;28;20212;-73
2022/05/28 05:28:10;;;;;;;4.07;1.40;;;;;;;10.15;75.11;100917.47;5053530;28;20232;-74
2022/05/28 05:30:37;;;;;;;5.87;1.97;;;;;;;10.29;76.27;100930.38;5053202;28;20263;-74
2022/05/28 05:33:03;;;;;;;2.67;1.30;;;;;;;10.34;76.56;100912.94;5053524;28;20614;-73
2022/05/28 05:35:30;;;;;;;4.73;1.93;;;;;;;10.43;76.96;100906.78;5053204;28;20210;-74
2022/05/28 05:37:56;;;;;;;7.17;1.37;;;;;;;10.40;75.85;100917.25;5053779;28;20212;-74
2022/05/28 05:40:24;;;;;;;2.97;0.90;;;;;;;10.32;76.11;100938.19;5053322;28;20231;-73
2022/05/28 05:42:51;;;;;;;3.77;1.40;;;;;;;10.32;76.13;100918.19;5053268;28;20222;-72
2022/05/28 05:45:17;;;;;;;3.50;1.37;;;;;;;10.42;76.04;100921.56;5053414;28;20219;-73
2022/05/28 05:47:44;;;;;;;4.53;1.50;;;;;;;10.44;75.08;100931.97;5047137;28;20252;-73
2022/05/28 05:50:11;;;;;;;7.57;1.60;;;;;;;10.49;73.24;101014.59;5049418;28;20214;-74
2022/05/28 05:52:37;;;;;;;9.33;1.40;;;;;;;10.49;74.55;100996.31;5044531;28;20258;-73
2022/05/28 05:55:04;;;;;;;5.37;1.57;;;;;;;10.60;75.45;100961.41;5043495;28;20738;-74
2022/05/28 05:57:33;;;;;;;4.33;1.53;;;;;;;10.64;75.30;100943.06;5043996;28;20199;-73
2022/05/28 05:59:59;;;;;;;3.77;1.50;;;;;;;10.49;75.02;100953.69;5042649;28;20828;-73
2022/05/28 06:02:26;;;;;;;8.23;1.87;;;;;;;10.27;75.33;100938.22;5041345;28;20256;-73
2022/05/28 06:04:53;;;;;;;6.17;1.60;;;;;;;10.27;74.75;100951.25;5043113;28;20231;-73
2022/05/28 06:07:20;;;;;;;4.23;3.40;;;;;;;10.40;75.71;100935.50;5043139;28;20227;-72
2022/05/28 06:09:46;;;;;;;4.73;1.13;;;;;;;10.37;74.18;100962.50;5040707;28;20206;-73
2022/05/28 06:12:13;;;;;;;4.80;1.50;;;;;;;10.26;74.81;100967.78;5043402;28;20209;-72
2022/05/28 06:14:40;;;;;;;3.90;1.13;;;;;;;10.24;74.92;100950.41;5042717;28;20218;-73
2022/05/28 06:17:07;;;;;;;3.47;1.00;;;;;;;10.27;76.55;100914.72;5040632;28;20201;-73
2022/05/28 06:19:34;;;;;;;5.27;1.30;;;;;;;10.37;76.58;100889.44;5049313;28;20238;-72
2022/05/28 06:22:01;;;;;;;2.57;1.27;;;;;;;10.29;76.93;100894.72;5045324;28;20209;-72
2022/05/28 06:24:27;;;;;;;4.67;1.20;;;;;;;10.36;75.90;100920.75;5042893;28;20255;-72
2022/05/28 06:26:54;;;;;;;1.77;1.00;;;;;;;10.64;76.35;100910.88;5041630;28;20718;-73
2022/05/28 06:29:20;;;;;;;5.57;1.30;;;;;;;10.67;75.53;100922.16;5040961;28;20789;-73
2022/05/28 06:31:48;;;;;;;3.50;1.40;;;;;;;10.59;75.05;100933.59;5043043;28;20737;-72
2022/05/28 06:34:15;;;;;;;2.07;1.07;;;;;;;10.57;74.91;100946.66;5041222;28;20222;-74
2022/05/28 06:36:41;;;;;;;8.73;1.50;;;;;;;10.57;73.40;100991.03;5041420;28;20712;-74
2022/05/28 06:39:07;;;;;;;4.07;1.43;;;;;;;10.57;73.49;101013.66;5042771;28;20200;-73
2022/05/28 06:41:34;;;;;;;4.10;1.00;;;;;;;10.57;73.62;101022.34;5041010;28;20209;-74
2022/05/28 06:44:00;;;;;;;5.03;1.33;;;;;;;10.55;73.36;101037.16;5041365;28;20220;-73
2022/05/28 06:46:27;;;;;;;2.70;1.37;;;;;;;10.62;73.95;101015.31;5042657;28;20781;-74
2022/05/28 06:48:55;;;;;;;4.17;1.50;;;;;;;10.52;74.47;100993.69;5044016;28;20259;-73
2022/05/28 06:51:21;;;;;;;4.90;1.27;;;;;;;10.42;74.77;100971.13;5044956;28;20635;-74
2022/05/28 06:53:50;;;;;;;2.80;1.30;;;;;;;10.43;73.78;100992.91;5042509;28;20216;-73
2022/05/28 06:56:18;;;;;;;5.43;1.63;;;;;;;10.46;73.86;100993.72;5034508;28;20204;-73
2022/05/28 06:58:44;;;;;;;5.43;1.33;;;;;;;10.38;73.26;101018.16;5032150;28;20262;-73
2022/05/28 07:01:12;;;;;;;7.60;1.57;;;;;;;10.58;73.74;101004.94;5032206;28;20211;-75
2022/05/28 07:03:40;;;;;;;4.40;1.57;;;;;;;10.78;73.86;101005.59;5031781;28;20257;-74
2022/05/28 07:06:08;;;;;;;5.00;1.10;;;;;;;10.71;72.60;101043.09;5031175;28;20232;-73
2022/05/28 07:08:35;;;;;;;4.80;2.00;;;;;;;10.61;72.39;101050.16;5031807;28;20620;-73
2022/05/28 07:11:05;;;;;;;5.33;1.70;;;;;;;10.56;72.23;101069.34;5031418;28;20232;-73
2022/05/28 07:13:31;;;;;;;6.47;1.90;;;;;;;10.71;73.19;101048.31;5032183;28;20283;-74
2022/05/28 07:15:58;;;;;;;3.03;1.80;;;;;;;10.87;72.00;101049.03;5031714;28;20212;-74
2022/05/28 07:18:25;;;;;;;3.93;1.27;;;;;;;10.89;72.10;101068.16;5039403;28;20266;-74
2022/05/28 07:20:52;;;;;;;4.93;2.00;;;;;;;10.90;71.03;101073.38;5050971;28;20717;-73
2022/05/28 07:23:24;;;;;;;5.07;1.23;;;;;;;10.72;70.82;101128.38;5051872;28;20227;-74
2022/05/28 07:25:59;;;;;;;4.67;1.37;;;;;;;10.81;72.61;101076.06;5050981;28;20223;-74
2022/05/28 07:28:25;;;;;;;6.07;1.30;;;;;;;10.80;70.91;101099.59;5041979;28;20216;-74
2022/05/28 07:30:52;;;;;;;3.87;1.80;;;;;;;10.69;70.78;101113.59;5040179;28;20266;-73
2022/05/28 07:33:19;;;;;;;4.23;1.10;;;;;;;10.74;72.32;101077.00;5038563;28;20313;-73
2022/05/28 07:35:45;;;;;;;4.73;1.40;;;;;;;10.78;72.10;101060.41;5030866;28;20762;-74
2022/05/28 07:38:12;;;;;;;6.00;1.47;;;;;;;10.79;71.49;101080.44;5034109;28;20209;-73
2022/05/28 07:40:40;;;;;;;5.03;1.20;;;;;;;10.82;71.20;101080.44;5044689;28;20258;-73
2022/05/28 07:43:08;;;;;;;3.30;1.40;;;;;;;10.90;72.49;101075.09;5054198;28;20732;-73
2022/05/28 07:45:37;;;;;;;8.17;2.13;;;;;;;10.82;71.08;101079.53;5054590;28;20197;-74
2022/05/28 07:48:04;;;;;;;4.10;1.40;;;;;;;10.80;70.15;101100.47;5051479;28;20744;-74
2022/05/28 07:50:30;;;;;;;6.23;1.57;;;;;;;11.10;69.42;101124.56;5054075;28;20702;-73
2022/05/28 07:52:58;;;;;;;3.60;1.60;;;;;;;11.27;68.85;101161.81;5054352;28;20208;-72
2022/05/28 07:55:24;;;;;;;2.27;1.10;;;;;;;11.61;68.84;101160.59;5052460;28;20242;-73
2022/05/28 07:57:52;;;;;;;5.93;1.50;;;;;;;11.74;65.93;101204.03;5054498;28;20719;-72
2022/05/28 08:00:19;;;;;;;3.77;1.40;;;;;;;11.74;66.00;101253.72;5054758;28;20208;-72
2022/05/28 08:02:46;;;;;;;6.50;1.83;;;;;;;11.72;65.55;101258.13;5044021;28;20212;-72
2022/05/28 08:05:12;;;;;;;4.13;1.23;;;;;;;11.68;66.21;101253.78;5054325;28;20277;-72
2022/05/28 08:07:39;;;;;;;3.43;1.50;;;;;;;11.53;65.59;101258.31;5054725;28;20233;-72
2022/05/28 08:10:06;;;;;;;3.60;1.43;;;;;;;11.70;64.08;101272.97;5051873;28;20195;-73
2022/05/28 08:12:33;;;;;;;6.13;2.10;;;;;;;11.62;63.57;101330.56;5054472;28;20253;-73
2022/05/28 08:15:00;;;;;;;3.77;1.27;;;;;;;11.56;63.09;101332.38;5054482;28;20705;-72
2022/05/28 08:17:27;;;;;;;7.73;1.80;;;;;;;11.58;64.40;101331.47;5052186;28;20252;-72
2022/05/28 08:19:53;;;;;;;4.23;1.67;;;;;;;11.53;66.91;101280.94;5051356;28;20206;-73
2022/05/28 08:25:04;;;;;;;3.70;1.53;;;;;;;11.15;68.27;101202.91;5054883;28;20238;-72
2022/05/28 08:27:31;;;;;;;6.10;1.57;;;;;;;11.25;67.22;101208.00;5054778;28;20237;-72
2022/05/28 08:29:57;;;;;;;6.73;1.93;;;;;;;11.29;67.19;101229.75;5054661;28;20207;-72
2022/05/28 08:32:25;;;;;;;3.53;1.30;;;;;;;11.51;67.38;101215.59;5054764;28;20215;-72
2022/05/28 08:34:51;;;;;;;4.43;1.43;;;;;;;11.68;67.52;101209.34;5053971;28;20788;-73
2022/05/28 08:37:18;;;;;;;5.70;1.83;;;;;;;11.79;68.35;101198.75;5054325;28;20672;-72
2022/05/28 08:39:44;;;;;;;6.60;1.77;;;;;;;11.72;67.33;101206.66;5054212;28;20251;-72
2022/05/28 08:42:14;;;;;;;2.93;1.23;;;;;;;11.74;66.65;101224.97;5054431;28;20215;-72
2022/05/28 08:44:42;;;;;;;5.70;1.60;;;;;;;12.26;67.31;101198.16;5054280;28;20231;-73
2022/05/28 08:47:15;;;;;;;5.73;1.40;;;;;;;12.32;63.72;101266.16;5053940;28;20227;-73
2022/05/28 08:49:44;;;;;;;2.80;0.90;;;;;;;12.20;61.64;101360.53;5053210;28;20681;-73
2022/05/28 08:52:17;;;;;;;3.80;1.13;;;;;;;12.55;63.36;101363.63;5054471;28;20262;-73
2022/05/28 08:54:56;;;;;;;4.03;1.10;;;;;;;12.31;61.43;101392.72;5054147;28;20768;-72
2022/05/28 08:57:37;;;;;;;2.87;1.47;;;;;;;12.16;61.11;101415.56;5053911;28;20212;-73
2022/05/28 09:00:11;;;;;;;2.17;1.00;;;;;;;12.17;63.03;101392.00;5054118;28;20221;-73
2022/05/28 09:02:41;;;;;;;2.63;1.03;;;;;;;12.10;62.08;101378.09;5051972;28;20188;-73
2022/05/28 09:05:20;;;;;;;3.43;1.20;;;;;;;11.97;62.65;101386.06;5034008;28;20223;-74
2022/05/28 09:07:47;;;;;;;4.33;1.67;;;;;;;11.88;62.83;101384.38;5033838;28;20725;-76
2022/05/28 09:10:13;;;;;;;3.70;1.27;;;;;;;12.09;63.40;101347.59;5033406;28;20212;-75
2022/05/28 09:12:44;;;;;;;5.80;1.73;;;;;;;12.44;63.34;101329.72;5033958;28;20218;-75
2022/05/28 09:15:12;;;;;;;3.90;1.30;;;;;;;12.56;61.72;101362.75;5032699;28;20319;-75
2022/05/28 09:17:43;;;;;;;3.40;1.50;;;;;;;12.65;62.40;101374.00;5035352;28;20200;-76
2022/05/28 09:20:15;;;;;;;4.97;1.70;;;;;;;12.32;60.50;101410.13;5052655;28;20260;-75
2022/05/28 09:22:41;;;;;;;4.27;1.57;;;;;;;12.00;60.44;101436.63;5053800;28;20196;-74
2022/05/28 09:25:09;;;;;;;4.20;1.00;;;;;;;12.08;61.55;101400.78;5053644;28;20223;-75
2022/05/28 09:27:48;;;;;;;4.40;1.33;;;;;;;11.82;61.72;101390.53;5053640;28;20734;-74
2022/05/28 09:30:21;;;;;;;6.37;2.30;;;;;;;11.83;61.46;101373.97;5053736;28;20254;-76
2022/05/28 09:33:07;;;;;;;4.03;1.50;;;;;;;12.04;61.72;101372.06;5053396;28;20188;-75
2022/05/28 09:35:49;;;;;;;5.20;1.20;;;;;;;11.86;61.42;101387.00;5053659;28;20225;-75
2022/05/28 09:38:22;;;;;;;4.90;1.10;;;;;;;11.78;62.17;101367.91;5053633;28;20197;-75
2022/05/28 09:40:51;;;;;;;3.53;1.20;;;;;;;11.97;63.10;101344.22;5053389;28;20200;-75
2022/05/28 09:43:36;;;;;;;4.37;1.63;;;;;;;12.19;62.33;101322.19;5053335;28;20227;-76
2022/05/28 09:46:17;;;;;;;4.50;1.40;;;;;;;12.58;61.33;101325.16;5053545;28;20203;-75
2022/05/28 09:48:46;;;;;;;3.10;1.30;;;;;;;12.64;60.09;101387.94;5053034;28;20723;-76
2022/05/28 09:51:25;;;;;;;2.90;1.10;;;;;;;12.46;59.39;101415.22;5053117;28;20251;-76
2022/05/28 09:56:44;;;;;;;1.63;1.30;;;;;;;12.60;59.95;101428.16;5053109;28;20207;-75
2022/05/28 09:59:22;;;;;;;4.50;1.00;;;;;;;12.83;60.67;101382.50;5052630;28;20286;-75
2022/05/28 10:01:53;;;;;;;4.30;0.70;;;;;;;12.99;61.40;101355.19;5052897;28;20204;-74
2022/05/28 10:04:32;;;;;;;5.27;1.60;;;;;;;12.85;61.48;101371.09;5053287;28;20228;-76
2022/05/28 10:07:02;;;;;;;2.03;0.93;;;;;;;12.86;62.30;101344.03;5053050;28;20211;-74
2022/05/28 10:09:30;;;;;;;2.60;1.20;;;;;;;13.04;61.37;101319.31;5052523;28;20302;-74
2022/05/28 10:11:59;;;;;;;2.87;1.00;;;;;;;13.24;61.94;101350.47;5053029;28;20209;-74
2022/05/28 10:14:28;;;;;;;3.37;1.20;;;;;;;13.18;63.71;101313.84;5052938;28;20304;-75
2022/05/28 10:16:57;;;;;;;5.00;1.73;;;;;;;13.34;63.44;101277.81;5053004;28;20294;-75
2022/05/28 10:19:29;;;;;;;3.30;1.63;;;;;;;13.50;61.24;101308.09;5051471;28;20203;-77
2022/05/28 10:21:58;;;;;;;3.83;1.80;;;;;;;13.75;61.64;101348.78;5052873;28;20207;-76
2022/05/28 10:24:31;;;;;;;3.53;1.87;;;;;;;13.31;62.85;101332.91;5052921;28;20251;-75
2022/05/28 10:27:01;;;;;;;3.47;1.43;;;;;;;13.28;63.88;101290.97;5052649;28;20281;-76
2022/05/28 10:29:36;;;;;;;4.33;1.50;;;;;;;12.69;68.15;101221.13;5052485;28;20221;-74
2022/05/28 10:32:03;;;;;;;3.50;1.60;;;;;;;12.45;73.41;101020.72;5052419;28;20193;-76
2022/05/28 10:34:33;;;;;;;4.17;1.50;;;;;;;12.38;73.26;100969.34;5051834;28;20668;-76
2022/05/28 10:37:11;;;;;;;5.97;1.33;;;;;;;11.90;74.86;100936.16;5052327;28;20257;-76
2022/05/28 10:39:40;;;;;;;1.97;1.10;;;;;;;11.08;79.83;100804.94;5052404;28;20194;-76
2022/05/28 10:42:09;;;;;;;2.57;1.27;;;;;;;10.67;84.07;100657.63;5052146;28;20223;-76
2022/05/28 10:44:37;;;;;;;2.93;1.03;;;;;;;10.57;86.80;100543.81;5051992;28;20874;-75
2022/05/28 10:47:17;;;;;;;1.83;1.20;;;;;;;10.88;86.49;100507.53;5052463;28;20211;-75
2022/05/28 10:49:52;;;;;;;3.70;1.27;;;;;;;11.24;86.55;100507.72;5051699;28;20212;-76
2022/05/28 10:52:29;;;;;;;3.40;1.20;;;;;;;11.27;86.09;100552.91;5052366;28;20201;-76
2022/05/28 10:55:04;;;;;;;5.40;2.87;;;;;;;11.49;86.41;100526.34;5052085;28;20231;-76
2022/05/28 10:58:00;;;;;;;5.50;2.00;;;;;;;11.78;84.77;100578.03;5051980;28;20637;-75
2022/05/28 11:00:32;;;;;;;3.27;1.40;;;;;;;11.99;82.93;100641.25;5048578;28;20211;-75
2022/05/28 11:03:30;;;;;;;4.93;1.40;;;;;;;12.02;78.60;100738.00;5052032;28;20612;-75
2022/05/28 11:06:39;;;;;;;5.50;1.37;;;;;;;12.25;77.89;100797.69;5051661;28;20723;-77
2022/05/28 11:09:10;;;;;;;2.13;1.40;;;;;;;12.54;71.54;100966.47;5051696;28;20229;-75
2022/05/28 11:11:50;;;;;;;5.80;1.17;;;;;;;12.92;71.93;101028.59;5050160;28;20221;-76
2022/05/28 11:14:51;;;;;;;2.57;1.30;;;;;;;13.10;69.25;101109.53;5051917;28;20641;-77
2022/05/28 11:17:33;;;;;;;4.47;1.50;;;;;;;13.36;68.64;101139.66;5051746;28;20211;-77
2022/05/28 11:20:19;;;;;;;4.60;1.57;;;;;;;13.79;64.93;101179.91;5044580;28;20225;-77
2022/05/28 11:23:13;;;;;;;4.00;1.30;;;;;;;14.06;66.38;101215.22;5050568;28;20284;-77
2022/05/28 11:25:55;;;;;;;7.47;1.80;;;;;;;13.94;64.19;101260.09;5050753;28;20258;-78
2022/05/28 11:28:43;;;;;;;4.33;1.63;;;;;;;13.52;64.15;101274.00;5050980;28;20281;-77
2022/05/28 11:31:14;;;;;;;5.70;1.80;;;;;;;13.23;66.09;101250.84;5050961;28;20214;-75
2022/05/28 11:33:46;;;;;;;10.23;2.67;;;;;;;12.89;69.05;101194.63;5050989;28;20233;-76
2022/05/28 11:36:18;;;;;;;5.63;2.20;;;;;;;12.62;71.26;101085.03;5051077;28;20191;-77
2022/05/28 11:38:50;;;;;;;8.77;2.20;;;;;;;12.45;77.23;100876.72;5051071;28;20216;-76
2022/05/28 11:41:25;;;;;;;7.63;2.17;;;;;;;12.14;78.57;100795.31;5051148;28;20396;-75
2022/05/28 11:44:01;;;;;;;7.43;2.53;;;;;;;13.18;76.82;100750.25;5050886;28;20296;-75